Kosho Maru No.2 — JD2440 — position and weather

sailwx.info

Track history (hours):
 
Tides and Currents Weather Stations Pressure Air Temp Water Temp Dewpoint Dewpoint Depression Visibility Wind Speed Wind Dir Waves Ship Positions

Kosho Maru No.2

Last reported at 2017-Dec-11 07:43 UTC. Time now 2017-Dec-13 20:52 UTC.
Position N 34°27' E 134°26'.

Length 75 m; draft 3.8 m.

Type: Cargo ship. MMSI: 431000218.

Date/timePositionNaut miles runAvg speedWind from/ knotsBaromVisibWave heightAir tempDewpointWater temp
2017-Dec-11 07:43N 34°27' E 134°26'411.2
2017-Dec-11 07:22N 34°28' E 134°31'411.0
2017-Dec-11 07:00N 34°29' E 134°35'510.9
2017-Dec-11 06:30N 34°31' E 134°41'611.5
2017-Dec-11 06:00N 34°34' E 134°48'612.6
2017-Dec-11 05:31N 34°36' E 134°55'611.8
2017-Dec-11 05:01N 34°37' E 135°02'611.5
2017-Dec-11 04:31N 34°36' E 135°09'611.2
2017-Dec-11 04:00N 34°37' E 135°16'510.8
2017-Dec-11 03:31N 34°38' E 135°22'3 0.7
2017-Dec-10 22:54N 34°37' E 135°26'0 0.2
2017-Dec-10 22:30N 34°37' E 135°26'1 1.6
2017-Dec-10 22:00N 34°37' E 135°25'1 2.9
2017-Dec-10 21:31N 34°37' E 135°23'4 7.3
2017-Dec-10 21:00N 34°35' E 135°27'0 0.5
2017-Dec-10 20:30N 34°35' E 135°28'0 0.0
2017-Dec-10 20:00N 34°35' E 135°28'0 0.0
2017-Dec-10 19:30N 34°35' E 135°28'0 0.0
2017-Dec-10 19:00N 34°35' E 135°28'0 0.0
2017-Dec-10 18:30N 34°35' E 135°28'0 0.0
2017-Dec-10 18:00N 34°35' E 135°28'0 0.0
2017-Dec-10 17:30N 34°35' E 135°28'0 0.0
2017-Dec-10 17:00N 34°35' E 135°28'0 0.0
2017-Dec-10 16:27N 34°35' E 135°28'0 0.0
2017-Dec-10 16:00N 34°35' E 135°28'0 0.0
2017-Dec-10 15:30N 34°35' E 135°28'0 0.0
2017-Dec-10 15:00N 34°35' E 135°28'0 0.0
2017-Dec-10 14:30N 34°35' E 135°28'0 0.0
2017-Dec-10 14:00N 34°35' E 135°28'0 0.0
2017-Dec-10 13:30N 34°35' E 135°28'0 0.0
2017-Dec-10 13:00N 34°35' E 135°28'0 0.0
2017-Dec-10 12:30N 34°35' E 135°28'0 0.0
2017-Dec-10 12:00N 34°35' E 135°28'0 0.0
2017-Dec-10 11:30N 34°35' E 135°28'0 0.0
2017-Dec-10 10:57N 34°35' E 135°28'0 0.0
2017-Dec-10 10:30N 34°35' E 135°28'0 0.0
2017-Dec-10 10:00N 34°35' E 135°28'0 0.0
2017-Dec-10 09:30N 34°35' E 135°28'0 0.0
2017-Dec-10 08:57N 34°35' E 135°28'0 0.0
2017-Dec-10 08:30N 34°35' E 135°28'0 0.0
2017-Dec-10 08:00N 34°35' E 135°28'0 0.0
2017-Dec-10 07:27N 34°35' E 135°28'0 0.0
2017-Dec-10 07:00N 34°35' E 135°28'0 0.0
2017-Dec-10 06:27N 34°35' E 135°28'0 0.0
2017-Dec-10 05:57N 34°35' E 135°28'0 0.0
2017-Dec-10 05:30N 34°35' E 135°28'0 0.0
2017-Dec-10 05:00N 34°35' E 135°28'0 0.0
2017-Dec-10 04:27N 34°35' E 135°28'0 0.0
2017-Dec-10 03:57N 34°35' E 135°28'0 0.0
2017-Dec-10 03:21N 34°35' E 135°28'0 0.0
2017-Dec-10 02:57N 34°35' E 135°28'0 0.0
2017-Dec-10 02:27N 34°35' E 135°28'0 0.0
2017-Dec-10 01:57N 34°35' E 135°28'0 0.0
2017-Dec-10 01:27N 34°35' E 135°28'0 0.0
2017-Dec-10 00:51N 34°35' E 135°28'0 0.0
2017-Dec-10 00:27N 34°35' E 135°28'0 0.0
2017-Dec-09 23:57N 34°35' E 135°28'0 0.0
2017-Dec-09 23:30N 34°35' E 135°28'0 1.0
2017-Dec-09 23:00N 34°35' E 135°27'3 7.0
2017-Dec-09 22:30N 34°36' E 135°23'1 1.7
2017-Dec-09 21:57N 34°35' E 135°23'0 0.0
2017-Dec-09 21:30N 34°35' E 135°23'0 0.0
2017-Dec-09 21:00N 34°35' E 135°23'0 0.0
2017-Dec-09 20:30N 34°35' E 135°23'0 0.0
2017-Dec-09 20:00N 34°35' E 135°23'0 0.0
2017-Dec-09 19:30N 34°35' E 135°23'0 0.0
2017-Dec-09 19:00N 34°35' E 135°23'3 6.0
2017-Dec-09 18:30N 34°34' E 135°20'611.1
2017-Dec-09 18:00N 34°30' E 135°15'611.3
2017-Dec-09 17:30N 34°26' E 135°10'611.3
2017-Dec-09 17:00N 34°21' E 135°06'611.4
2017-Dec-09 16:30N 34°16' E 135°03'611.2
2017-Dec-09 16:00N 34°11' E 135°02'611.2
2017-Dec-09 15:30N 34°05' E 135°02'611.4
2017-Dec-09 15:00N 33°59' E 135°02'96 7.3
2017-Dec-09 01:57N 34°29' E 136°52'1910.6
2017-Dec-09 00:11N 34°47' E 136°46'211.1
2017-Dec-09 00:00N 34°49' E 136°46'611.1
2017-Dec-08 23:30N 34°55' E 136°46'5 9.4
2017-Dec-08 23:00N 34°59' E 136°48'0 0.1
2017-Dec-08 22:28N 34°59' E 136°48'0 0.0
2017-Dec-08 21:58N 34°59' E 136°48'0 0.0
2017-Dec-08 21:28N 34°59' E 136°48'0 0.0
2017-Dec-08 20:58N 34°59' E 136°48'0 0.0
2017-Dec-08 20:28N 34°59' E 136°48'0 0.0
2017-Dec-08 19:58N 34°59' E 136°48'0 0.0
2017-Dec-08 19:28N 34°59' E 136°48'0 0.0
2017-Dec-08 18:58N 34°59' E 136°48'0 0.0
2017-Dec-08 18:28N 34°59' E 136°48'0 0.0
2017-Dec-08 17:58N 34°59' E 136°48'0 0.1
2017-Dec-08 17:28N 34°59' E 136°48'0 0.0
2017-Dec-08 16:52N 34°59' E 136°48'0 0.0
2017-Dec-08 16:28N 34°59' E 136°48'0 0.0
2017-Dec-08 15:58N 34°59' E 136°48'0 0.0
2017-Dec-08 15:28N 34°59' E 136°48'0 0.0
2017-Dec-08 14:58N 34°59' E 136°48'0 0.0
2017-Dec-08 14:28N 34°59' E 136°48'0 0.0
2017-Dec-08 13:58N 34°59' E 136°48'0 0.1
2017-Dec-08 13:28N 34°59' E 136°48'0 0.0
2017-Dec-08 12:58N 34°59' E 136°48'0 0.0
2017-Dec-08 12:28N 34°59' E 136°48'0 0.1
2017-Dec-08 11:58N 34°59' E 136°48'0 0.1
2017-Dec-08 11:28N 34°59' E 136°48'0 0.0
2017-Dec-08 10:58N 34°59' E 136°48'0 0.0
2017-Dec-08 10:28N 34°59' E 136°48'0 0.1
2017-Dec-08 09:58N 34°59' E 136°48'0 0.0
2017-Dec-08 09:28N 34°59' E 136°48'0 0.0
2017-Dec-08 08:58N 34°59' E 136°48'0 0.0
2017-Dec-08 08:28N 34°59' E 136°48'0 0.0
2017-Dec-08 07:58N 34°59' E 136°48'0 0.0
2017-Dec-08 07:28N 34°59' E 136°48'1 1.4
2017-Dec-08 07:00N 34°59' E 136°48'5 9.8
2017-Dec-08 06:30N 35°03' E 136°52'1 1.0
2017-Dec-08 05:56N 35°04' E 136°52'0 0.0
2017-Dec-08 05:23N 35°04' E 136°52'0 0.0
2017-Dec-08 04:59N 35°04' E 136°52'0 0.0
2017-Dec-08 04:29N 35°04' E 136°52'0 0.0
2017-Dec-08 03:53N 35°04' E 136°52'0 0.0
2017-Dec-08 03:29N 35°04' E 136°52'0 0.0
2017-Dec-08 02:59N 35°04' E 136°52'0 0.0
2017-Dec-08 02:29N 35°04' E 136°52'0 0.0
2017-Dec-08 01:59N 35°04' E 136°52'0 0.0
2017-Dec-08 01:29N 35°04' E 136°52'0 0.0
2017-Dec-08 00:59N 35°04' E 136°52'0 0.0
2017-Dec-08 00:29N 35°04' E 136°52'0 0.0
2017-Dec-07 23:59N 35°04' E 136°52'0 0.0
2017-Dec-07 23:29N 35°04' E 136°52'0 0.0
2017-Dec-07 22:59N 35°04' E 136°52'0 0.0
2017-Dec-07 22:29N 35°04' E 136°52'0 0.0
2017-Dec-07 21:59N 35°04' E 136°52'0 0.0
2017-Dec-07 21:29N 35°04' E 136°52'0 0.0
2017-Dec-07 20:59N 35°04' E 136°52'0 0.0
2017-Dec-07 20:23N 35°04' E 136°52'0 0.0
2017-Dec-07 19:59N 35°04' E 136°52'0 0.0
2017-Dec-07 19:29N 35°04' E 136°52'0 0.0
2017-Dec-07 18:59N 35°04' E 136°52'0 0.0
2017-Dec-07 18:29N 35°04' E 136°52'0 0.0
2017-Dec-07 17:59N 35°04' E 136°52'0 0.0
2017-Dec-07 17:29N 35°04' E 136°52'0 0.0
2017-Dec-07 16:59N 35°04' E 136°52'0 0.0
2017-Dec-07 16:29N 35°04' E 136°52'0 0.0
2017-Dec-07 15:59N 35°04' E 136°52'0 0.0
2017-Dec-07 15:29N 35°04' E 136°52'0 0.0
2017-Dec-07 14:59N 35°04' E 136°52'0 0.0
2017-Dec-07 14:29N 35°04' E 136°52'0 0.0
2017-Dec-07 13:56N 35°04' E 136°52'0 0.0
2017-Dec-07 13:29N 35°04' E 136°52'0 0.0
2017-Dec-07 12:59N 35°04' E 136°52'0 0.0
2017-Dec-07 12:29N 35°04' E 136°52'0 0.0
2017-Dec-07 11:59N 35°04' E 136°52'0 0.0
2017-Dec-07 11:29N 35°04' E 136°52'0 0.0
2017-Dec-07 10:59N 35°04' E 136°52'0 0.0
2017-Dec-07 10:29N 35°04' E 136°52'0 0.0
2017-Dec-07 09:59N 35°04' E 136°52'0 0.0
2017-Dec-07 09:29N 35°04' E 136°52'0 0.0
2017-Dec-07 08:56N 35°04' E 136°52'0 0.0
2017-Dec-07 08:29N 35°04' E 136°52'0 0.0
2017-Dec-07 07:59N 35°04' E 136°52'0 0.0
2017-Dec-07 07:29N 35°04' E 136°52'0 0.0
2017-Dec-07 06:59N 35°04' E 136°52'0 0.0
2017-Dec-07 06:29N 35°04' E 136°52'0 0.0
2017-Dec-07 05:59N 35°04' E 136°52'0 0.1
2017-Dec-07 05:29N 35°04' E 136°52'0 0.0
2017-Dec-07 04:59N 35°04' E 136°52'0 0.0
2017-Dec-07 04:20N 35°04' E 136°52'0 0.0
2017-Dec-07 03:59N 35°04' E 136°52'0 0.0
2017-Dec-07 03:29N 35°04' E 136°52'0 0.0
2017-Dec-07 02:59N 35°04' E 136°52'0 0.0
2017-Dec-07 02:29N 35°04' E 136°52'0 0.0
2017-Dec-07 01:59N 35°04' E 136°52'0 0.0
2017-Dec-07 01:29N 35°04' E 136°52'0 0.0
2017-Dec-07 00:59N 35°04' E 136°52'0 0.0
2017-Dec-07 00:29N 35°04' E 136°52'0 0.0
2017-Dec-06 23:59N 35°04' E 136°52'0 0.0
2017-Dec-06 23:29N 35°04' E 136°52'0 0.0
2017-Dec-06 22:59N 35°04' E 136°52'0 0.1
2017-Dec-06 22:30N 35°04' E 136°52'4 7.8
2017-Dec-06 22:01N 35°00' E 136°50'510.6
2017-Dec-06 21:31N 34°56' E 136°47'4 8.9
2017-Dec-06 21:01N 34°51' E 136°47'  
2017-Dec-01 10:30N 41°08' E 141°32'1711.8
2017-Dec-01 09:03N 41°25' E 141°31'112.0
2017-Dec-01 08:56N 41°27' E 141°31'512.1
2017-Dec-01 08:30N 41°29' E 141°25'612.5
2017-Dec-01 08:00N 41°31' E 141°17'  
Track history (hours):
 
Tides and Currents Weather Stations Pressure Air Temp Water Temp Dewpoint Dewpoint Depression Visibility Wind Speed Wind Dir Waves Ship Positions

Kosho Maru No.2

Last reported at 2017-Dec-11 07:43 UTC. Time now 2017-Dec-13 20:52 UTC.
Position N 34°27' E 134°26'.

Length 75 m; draft 3.8 m.

Type: Cargo ship. MMSI: 431000218.

Date/timePositionNaut miles runAvg speedWind from/ knotsBaromVisibWave heightAir tempDewpointWater temp
2017-Dec-11 07:43N 34°27' E 134°26'411.2
2017-Dec-11 07:22N 34°28' E 134°31'411.0
2017-Dec-11 07:00N 34°29' E 134°35'510.9
2017-Dec-11 06:30N 34°31' E 134°41'611.5
2017-Dec-11 06:00N 34°34' E 134°48'612.6
2017-Dec-11 05:31N 34°36' E 134°55'611.8
2017-Dec-11 05:01N 34°37' E 135°02'611.5
2017-Dec-11 04:31N 34°36' E 135°09'611.2
2017-Dec-11 04:00N 34°37' E 135°16'510.8
2017-Dec-11 03:31N 34°38' E 135°22'3 0.7
2017-Dec-10 22:54N 34°37' E 135°26'0 0.2
2017-Dec-10 22:30N 34°37' E 135°26'1 1.6
2017-Dec-10 22:00N 34°37' E 135°25'1 2.9
2017-Dec-10 21:31N 34°37' E 135°23'4 7.3
2017-Dec-10 21:00N 34°35' E 135°27'0 0.5
2017-Dec-10 20:30N 34°35' E 135°28'0 0.0
2017-Dec-10 20:00N 34°35' E 135°28'0 0.0
2017-Dec-10 19:30N 34°35' E 135°28'0 0.0
2017-Dec-10 19:00N 34°35' E 135°28'0 0.0
2017-Dec-10 18:30N 34°35' E 135°28'0 0.0
2017-Dec-10 18:00N 34°35' E 135°28'0 0.0
2017-Dec-10 17:30N 34°35' E 135°28'0 0.0
2017-Dec-10 17:00N 34°35' E 135°28'0 0.0
2017-Dec-10 16:27N 34°35' E 135°28'0 0.0
2017-Dec-10 16:00N 34°35' E 135°28'0 0.0
2017-Dec-10 15:30N 34°35' E 135°28'0 0.0
2017-Dec-10 15:00N 34°35' E 135°28'0 0.0
2017-Dec-10 14:30N 34°35' E 135°28'0 0.0
2017-Dec-10 14:00N 34°35' E 135°28'0 0.0
2017-Dec-10 13:30N 34°35' E 135°28'0 0.0
2017-Dec-10 13:00N 34°35' E 135°28'0 0.0
2017-Dec-10 12:30N 34°35' E 135°28'0 0.0
2017-Dec-10 12:00N 34°35' E 135°28'0 0.0
2017-Dec-10 11:30N 34°35' E 135°28'0 0.0
2017-Dec-10 10:57N 34°35' E 135°28'0 0.0
2017-Dec-10 10:30N 34°35' E 135°28'0 0.0
2017-Dec-10 10:00N 34°35' E 135°28'0 0.0
2017-Dec-10 09:30N 34°35' E 135°28'0 0.0
2017-Dec-10 08:57N 34°35' E 135°28'0 0.0
2017-Dec-10 08:30N 34°35' E 135°28'0 0.0
2017-Dec-10 08:00N 34°35' E 135°28'0 0.0
2017-Dec-10 07:27N 34°35' E 135°28'0 0.0
2017-Dec-10 07:00N 34°35' E 135°28'0 0.0
2017-Dec-10 06:27N 34°35' E 135°28'0 0.0
2017-Dec-10 05:57N 34°35' E 135°28'0 0.0
2017-Dec-10 05:30N 34°35' E 135°28'0 0.0
2017-Dec-10 05:00N 34°35' E 135°28'0 0.0
2017-Dec-10 04:27N 34°35' E 135°28'0 0.0
2017-Dec-10 03:57N 34°35' E 135°28'0 0.0
2017-Dec-10 03:21N 34°35' E 135°28'0 0.0
2017-Dec-10 02:57N 34°35' E 135°28'0 0.0
2017-Dec-10 02:27N 34°35' E 135°28'0 0.0
2017-Dec-10 01:57N 34°35' E 135°28'0 0.0
2017-Dec-10 01:27N 34°35' E 135°28'0 0.0
2017-Dec-10 00:51N 34°35' E 135°28'0 0.0
2017-Dec-10 00:27N 34°35' E 135°28'0 0.0
2017-Dec-09 23:57N 34°35' E 135°28'0 0.0
2017-Dec-09 23:30N 34°35' E 135°28'0 1.0
2017-Dec-09 23:00N 34°35' E 135°27'3 7.0
2017-Dec-09 22:30N 34°36' E 135°23'1 1.7
2017-Dec-09 21:57N 34°35' E 135°23'0 0.0
2017-Dec-09 21:30N 34°35' E 135°23'0 0.0
2017-Dec-09 21:00N 34°35' E 135°23'0 0.0
2017-Dec-09 20:30N 34°35' E 135°23'0 0.0
2017-Dec-09 20:00N 34°35' E 135°23'0 0.0
2017-Dec-09 19:30N 34°35' E 135°23'0 0.0
2017-Dec-09 19:00N 34°35' E 135°23'3 6.0
2017-Dec-09 18:30N 34°34' E 135°20'611.1
2017-Dec-09 18:00N 34°30' E 135°15'611.3
2017-Dec-09 17:30N 34°26' E 135°10'611.3
2017-Dec-09 17:00N 34°21' E 135°06'611.4
2017-Dec-09 16:30N 34°16' E 135°03'611.2
2017-Dec-09 16:00N 34°11' E 135°02'611.2
2017-Dec-09 15:30N 34°05' E 135°02'611.4
2017-Dec-09 15:00N 33°59' E 135°02'96 7.3
2017-Dec-09 01:57N 34°29' E 136°52'1910.6
2017-Dec-09 00:11N 34°47' E 136°46'211.1
2017-Dec-09 00:00N 34°49' E 136°46'611.1
2017-Dec-08 23:30N 34°55' E 136°46'5 9.4
2017-Dec-08 23:00N 34°59' E 136°48'0 0.1
2017-Dec-08 22:28N 34°59' E 136°48'0 0.0
2017-Dec-08 21:58N 34°59' E 136°48'0 0.0
2017-Dec-08 21:28N 34°59' E 136°48'0 0.0
2017-Dec-08 20:58N 34°59' E 136°48'0 0.0
2017-Dec-08 20:28N 34°59' E 136°48'0 0.0
2017-Dec-08 19:58N 34°59' E 136°48'0 0.0
2017-Dec-08 19:28N 34°59' E 136°48'0 0.0
2017-Dec-08 18:58N 34°59' E 136°48'0 0.0
2017-Dec-08 18:28N 34°59' E 136°48'0 0.0
2017-Dec-08 17:58N 34°59' E 136°48'0 0.1
2017-Dec-08 17:28N 34°59' E 136°48'0 0.0
2017-Dec-08 16:52N 34°59' E 136°48'0 0.0
2017-Dec-08 16:28N 34°59' E 136°48'0 0.0
2017-Dec-08 15:58N 34°59' E 136°48'0 0.0
2017-Dec-08 15:28N 34°59' E 136°48'0 0.0
2017-Dec-08 14:58N 34°59' E 136°48'0 0.0
2017-Dec-08 14:28N 34°59' E 136°48'0 0.0
2017-Dec-08 13:58N 34°59' E 136°48'0 0.1
2017-Dec-08 13:28N 34°59' E 136°48'0 0.0
2017-Dec-08 12:58N 34°59' E 136°48'0 0.0
2017-Dec-08 12:28N 34°59' E 136°48'0 0.1
2017-Dec-08 11:58N 34°59' E 136°48'0 0.1
2017-Dec-08 11:28N 34°59' E 136°48'0 0.0
2017-Dec-08 10:58N 34°59' E 136°48'0 0.0
2017-Dec-08 10:28N 34°59' E 136°48'0 0.1
2017-Dec-08 09:58N 34°59' E 136°48'0 0.0
2017-Dec-08 09:28N 34°59' E 136°48'0 0.0
2017-Dec-08 08:58N 34°59' E 136°48'0 0.0
2017-Dec-08 08:28N 34°59' E 136°48'0 0.0
2017-Dec-08 07:58N 34°59' E 136°48'0 0.0
2017-Dec-08 07:28N 34°59' E 136°48'1 1.4
2017-Dec-08 07:00N 34°59' E 136°48'5 9.8
2017-Dec-08 06:30N 35°03' E 136°52'1 1.0
2017-Dec-08 05:56N 35°04' E 136°52'0 0.0
2017-Dec-08 05:23N 35°04' E 136°52'0 0.0
2017-Dec-08 04:59N 35°04' E 136°52'0 0.0
2017-Dec-08 04:29N 35°04' E 136°52'0 0.0
2017-Dec-08 03:53N 35°04' E 136°52'0 0.0
2017-Dec-08 03:29N 35°04' E 136°52'0 0.0
2017-Dec-08 02:59N 35°04' E 136°52'0 0.0
2017-Dec-08 02:29N 35°04' E 136°52'0 0.0
2017-Dec-08 01:59N 35°04' E 136°52'0 0.0
2017-Dec-08 01:29N 35°04' E 136°52'0 0.0
2017-Dec-08 00:59N 35°04' E 136°52'0 0.0
2017-Dec-08 00:29N 35°04' E 136°52'0 0.0
2017-Dec-07 23:59N 35°04' E 136°52'0 0.0
2017-Dec-07 23:29N 35°04' E 136°52'0 0.0
2017-Dec-07 22:59N 35°04' E 136°52'0 0.0
2017-Dec-07 22:29N 35°04' E 136°52'0 0.0
2017-Dec-07 21:59N 35°04' E 136°52'0 0.0
2017-Dec-07 21:29N 35°04' E 136°52'0 0.0
2017-Dec-07 20:59N 35°04' E 136°52'0 0.0
2017-Dec-07 20:23N 35°04' E 136°52'0 0.0
2017-Dec-07 19:59N 35°04' E 136°52'0 0.0
2017-Dec-07 19:29N 35°04' E 136°52'0 0.0
2017-Dec-07 18:59N 35°04' E 136°52'0 0.0
2017-Dec-07 18:29N 35°04' E 136°52'0 0.0
2017-Dec-07 17:59N 35°04' E 136°52'0 0.0
2017-Dec-07 17:29N 35°04' E 136°52'0 0.0
2017-Dec-07 16:59N 35°04' E 136°52'0 0.0
2017-Dec-07 16:29N 35°04' E 136°52'0 0.0
2017-Dec-07 15:59N 35°04' E 136°52'0 0.0
2017-Dec-07 15:29N 35°04' E 136°52'0 0.0
2017-Dec-07 14:59N 35°04' E 136°52'0 0.0
2017-Dec-07 14:29N 35°04' E 136°52'0 0.0
2017-Dec-07 13:56N 35°04' E 136°52'0 0.0
2017-Dec-07 13:29N 35°04' E 136°52'0 0.0
2017-Dec-07 12:59N 35°04' E 136°52'0 0.0
2017-Dec-07 12:29N 35°04' E 136°52'0 0.0
2017-Dec-07 11:59N 35°04' E 136°52'0 0.0
2017-Dec-07 11:29N 35°04' E 136°52'0 0.0
2017-Dec-07 10:59N 35°04' E 136°52'0 0.0
2017-Dec-07 10:29N 35°04' E 136°52'0 0.0
2017-Dec-07 09:59N 35°04' E 136°52'0 0.0
2017-Dec-07 09:29N 35°04' E 136°52'0 0.0
2017-Dec-07 08:56N 35°04' E 136°52'0 0.0
2017-Dec-07 08:29N 35°04' E 136°52'0 0.0
2017-Dec-07 07:59N 35°04' E 136°52'0 0.0
2017-Dec-07 07:29N 35°04' E 136°52'0 0.0
2017-Dec-07 06:59N 35°04' E 136°52'0 0.0
2017-Dec-07 06:29N 35°04' E 136°52'0 0.0
2017-Dec-07 05:59N 35°04' E 136°52'0 0.1
2017-Dec-07 05:29N 35°04' E 136°52'0 0.0
2017-Dec-07 04:59N 35°04' E 136°52'0 0.0
2017-Dec-07 04:20N 35°04' E 136°52'0 0.0
2017-Dec-07 03:59N 35°04' E 136°52'0 0.0
2017-Dec-07 03:29N 35°04' E 136°52'0 0.0
2017-Dec-07 02:59N 35°04' E 136°52'0 0.0
2017-Dec-07 02:29N 35°04' E 136°52'0 0.0
2017-Dec-07 01:59N 35°04' E 136°52'0 0.0
2017-Dec-07 01:29N 35°04' E 136°52'0 0.0
2017-Dec-07 00:59N 35°04' E 136°52'0 0.0
2017-Dec-07 00:29N 35°04' E 136°52'0 0.0
2017-Dec-06 23:59N 35°04' E 136°52'0 0.0
2017-Dec-06 23:29N 35°04' E 136°52'0 0.0
2017-Dec-06 22:59N 35°04' E 136°52'0 0.1
2017-Dec-06 22:30N 35°04' E 136°52'4 7.8
2017-Dec-06 22:01N 35°00' E 136°50'510.6
2017-Dec-06 21:31N 34°56' E 136°47'4 8.9
2017-Dec-06 21:01N 34°51' E 136°47'  
2017-Dec-01 10:30N 41°08' E 141°32'1711.8
2017-Dec-01 09:03N 41°25' E 141°31'112.0
2017-Dec-01 08:56N 41°27' E 141°31'512.1
2017-Dec-01 08:30N 41°29' E 141°25'612.5
2017-Dec-01 08:00N 41°31' E 141°17'  

Dump ship's entire track history